Ευχαριστούμε που συμβάλλετε στη διατήρηση της σελίδας μας.

Thank you for your donations, it really helps to maintain the page.


Στατιστικά Καιρού & Άλλα..









Δείκτης Πυρκαγιάς (FWI)

Καστελόκαμπος Ρίον more information Kastelokampos Rion


Κάμερα Ρομανού more information Romanos Cam


Ραντάρ Κεραυνών more information blitzortung!


Ραντάρ Βροχής more information rain snow radar


Επισκεφθείτε άλλες ιστοσελίδες καιρού μας:

Meteopatras.Eu in
Euweather NetworkMeteopatras.Eu in Euweather Network

Weather CloudWeather Cloud

PWS WeatherPWS Weather

Awekas NetWeather data from station Patra-Ketx

WunderGroundWeather data from station Patra-Ketx




Ιδιοκτησία και Επίβλεψη : Μουλάς Αντρέας

 Πάτρα, Ελλάδα - Γ.Πλάτος : 38°14'21" Β - Γ.Μήκος : 21°45'5" Α - Υψόμετρο : 56μ

Κοντινές Αναφορές METAR

Warning: A non-numeric value encountered in /storage/content/70/1007070/meteopatras.eu/public_html/weather/metar/metarDisplay.php on line 166
   
LGRX - Araxos
Ενημερώθηκε: 30-10-2020 08:20
Κυρίως Αίθριος  
Κυρίως Αίθριος  
   Άνεμος: Άπνοια
Άνεμος: Άπνοια
Θερμοκρασία: 14°C
Σημείο Δρόσου: 14°C
Υγρασία: 100%
Βαρόμετρο: 1019 hPa
Σύννεφα: Κυρίως Αίθριος
Ορατότητα: More than 10 km
Λεπτομέρειες Σύννεφου: Κυρίως Αίθριος 1800 ft
LGRX 300620Z 00000KT 9999 FEW018 14/14 Q1019
LGAD - Andravida
Ενημερώθηκε: 30-10-2020 08:20
Κυρίως Αίθριος  
Κυρίως Αίθριος  
   Άνεμος: Άπνοια
Άνεμος: Άπνοια
Θερμοκρασία: 19°C
Σημείο Δρόσου: 13°C
Υγρασία: 68%
Βαρόμετρο: 1019 hPa
Σύννεφα: Κυρίως Αίθριος
Ορατότητα: More than 10 km
Λεπτομέρειες Σύννεφου: Κυρίως Αίθριος 2000 ft
LGAD 300620Z 00000KT 9999 FEW020 19/13 Q1019
LGZA - Zakinthos
Ενημερώθηκε: 30-10-2020 07:50
Κυρίως Αίθριος  
Κυρίως Αίθριος  
   Άνεμος: Βοράς 9.3 km/h
Άνεμος: Βοράς 9.3 km/h
Θερμοκρασία: 17°C
Σημείο Δρόσου: 13°C
Υγρασία: 77%
Βαρόμετρο: 1018 hPa
Σύννεφα: Κυρίως Αίθριος
Ορατότητα: More than 10 km
Λεπτομέρειες Σύννεφου: Κυρίως Αίθριος 1600 ft
LGZA 300550Z 35005KT 9999 FEW016 17/13 Q1018
LGKF - Kefallinia
Ενημερώθηκε: 30-10-2020 07:50
Κυρίως Αίθριος  
Κυρίως Αίθριος  
   Άνεμος: Βοράς 11.1 km/h
Άνεμος: Βοράς 11.1 km/h
Θερμοκρασία: 17°C
Σημείο Δρόσου: 17°C
Υγρασία: 100%
Βαρόμετρο: 1018 hPa
Σύννεφα: Κυρίως Αίθριος
Ορατότητα: More than 10 km
Λεπτομέρειες Σύννεφου: Κυρίως Αίθριος 1500 ft
LGKF 300550Z 35006KT 9999 FEW015 17/17 Q1018
LGPZ - Preveza
Ενημερώθηκε: 30-10-2020 08:20
Κυρίως Αίθριος  
Κυρίως Αίθριος  
   Άνεμος: Άπνοια
Άνεμος: Άπνοια
Θερμοκρασία: 15°C
Σημείο Δρόσου: 13°C
Υγρασία: 88%
Βαρόμετρο: 1019 hPa
Σύννεφα: Κυρίως Αίθριος
Ορατότητα: More than 10 km
Λεπτομέρειες Σύννεφου: Κυρίως Αίθριος 2000 ft
LGPZ 300620Z 00000KT 9999 FEW020 15/13 Q1019
LGKL - Kalamata
Ενημερώθηκε: 30-10-2020 08:20
Ομίχλη, Κυρίως Αίθριος  
Ομίχλη, Κυρίως Αίθριος  
   Άνεμος: Άπνοια
Άνεμος: Άπνοια
Θερμοκρασία: 15°C
Σημείο Δρόσου: 13°C
Υγρασία: 88%
Βαρόμετρο: 1019 hPa
Σύννεφα: Κυρίως Αίθριος
Ορατότητα: 9 km
Λεπτομέρειες Σύννεφου: Κυρίως Αίθριος 2500 ft
LGKL 300620Z 00000KT 9000 2500SE BR FEW025 15/13 Q1019
LGKR - Kerkyra
Ενημερώθηκε: 30-10-2020 08:20
Κυρίως Αίθριος  
Κυρίως Αίθριος  
   Άνεμος: Άπνοια
Άνεμος: Άπνοια
Θερμοκρασία: 16°C
Σημείο Δρόσου: 13°C
Υγρασία: 83%
Βαρόμετρο: 1018 hPa
Σύννεφα: Κυρίως Αίθριος
Ορατότητα: More than 10 km
Λεπτομέρειες Σύννεφου: Κυρίως Αίθριος 2500 ft
LGKR 300620Z 00000KT 9999 FEW025 16/13 Q1018 NOSIG
LGIO - Iwannina
Ενημερώθηκε: 30-10-2020 07:50
Ομίχλη, Συννεφιά  
Ομίχλη, Συννεφιά  
   Άνεμος: Άπνοια
Άνεμος: Άπνοια
Θερμοκρασία: 8°C
Σημείο Δρόσου: 8°C
Υγρασία: 100%
Βαρόμετρο: 1021 hPa
Σύννεφα: Συννεφιά
Ορατότητα: 0 km
Λεπτομέρειες Σύννεφου: Συννεφιά 200 ft
LGIO 300550Z 00000KT 0100 FG VV002 08/08 Q1021
LGPZ - Leykada
Ενημερώθηκε: 30-10-2020 08:20
Κυρίως Αίθριος  
Κυρίως Αίθριος  
   Άνεμος: Άπνοια
Άνεμος: Άπνοια
Θερμοκρασία: 15°C
Σημείο Δρόσου: 13°C
Υγρασία: 88%
Βαρόμετρο: 1019 hPa
Σύννεφα: Κυρίως Αίθριος
Ορατότητα: More than 10 km
Λεπτομέρειες Σύννεφου: Κυρίως Αίθριος 2000 ft
LGPZ 300620Z 00000KT 9999 FEW020 15/13 Q1019
LGEL - Elefsina
Ενημερώθηκε: 30-10-2020 08:20
Κυρίως Αίθριος  
Κυρίως Αίθριος  
   Άνεμος: Άπνοια
Άνεμος: Άπνοια
Θερμοκρασία: 18°C
Σημείο Δρόσου: 14°C
Υγρασία: 78%
Βαρόμετρο: 1017 hPa
Σύννεφα: Κυρίως Αίθριος
Ορατότητα: More than 10 km
Λεπτομέρειες Σύννεφου: Κυρίως Αίθριος 2500 ft
LGEL 300620Z 00000KT 9999 FEW025 18/14 Q1017
LGKC - Kythira
Ενημερώθηκε: 30-10-2020 07:50
Αίθριος  
Αίθριος  
   Άνεμος: Άπνοια
Άνεμος: Άπνοια
Θερμοκρασία: 15°C
Σημείο Δρόσου: 14°C
Υγρασία: 94%
Βαρόμετρο: 1019 hPa
Ορατότητα: More than 10 km
Λεπτομέρειες Σύννεφου: Αίθριος
LGKC 300550Z 00000KT CAVOK 15/14 Q1019
LGIR - Hraklio
Ενημερώθηκε: 30-10-2020 08:20
Κυρίως Αίθριος  
Κυρίως Αίθριος  
   Άνεμος: ΝΔ 7.4 km/h
Άνεμος: ΝΔ 7.4 km/h
Θερμοκρασία: 20°C
Σημείο Δρόσου: 15°C
Υγρασία: 73%
Βαρόμετρο: 1018 hPa
Σύννεφα: Κυρίως Αίθριος
Ορατότητα: More than 10 km
Λεπτομέρειες Σύννεφου: Κυρίως Αίθριος 2500 ft
LGIR 300620Z 22004KT 9999 FEW025 20/15 Q1018 NOSIG

Script developed by  Saratoga-weather.org Προσαρμοσμένος για το πρότυπο του  Weerstation Leuven

Μπορείτε να βρείτε πληροφορίες καιρού μας και σε:

European Weather Network

WeatherCloud

Weather Underground

Δύκτιο Σταθμών Ελλάδας

AWEKAS

HAMweather, WeatherForYou, PWS Weather

MeteoPatras.Eu